Time,TemperatureF,DewpointF,PressureIn,WindDirection,WindDirectionDegrees,WindSpeedMPH,WindSpeedGustMPH,Humidity,HourlyPrecipIn,Conditions,Clouds,dailyrainin,SoftwareType,DateUTC
2013-01-15 08:10:00,55.6,55.6,30.01,WSW,241,5.0,5.0,100,0.00,,,0.00,Wunderground v.1.15,2013-01-15 13:10:00,
2013-01-15 08:11:00,55.6,55.6,30.01,SW,233,5.0,7.0,100,0.00,,,0.00,Wunderground v.1.15,2013-01-15 13:11:00,
2013-01-15 08:16:00,55.6,55.6,30.01,SW,219,7.0,8.0,100,0.00,,,0.00,Wunderground v.1.15,2013-01-15 13:16:00,
2013-01-15 08:22:00,55.6,55.6,30.01,SW,230,5.0,9.0,100,0.00,,,0.00,Wunderground v.1.15,2013-01-15 13:22:00,
2013-01-15 08:27:00,55.6,55.6,30.01,SW,224,5.0,8.0,100,0.00,,,0.00,Wunderground v.1.15,2013-01-15 13:27:00,
2013-01-15 08:32:00,55.6,55.6,30.02,SW,232,6.0,8.0,100,0.00,,,0.00,Wunderground v.1.15,2013-01-15 13:32:00,
2013-01-15 08:37:00,55.6,55.6,30.02,SW,234,8.0,8.0,100,0.00,,,0.00,Wunderground v.1.15,2013-01-15 13:37:00,
2013-01-15 08:43:00,55.6,55.6,30.02,SW,223,11.0,11.0,100,0.00,,,0.00,Wunderground v.1.15,2013-01-15 13:43:00,
2013-01-15 08:48:00,55.7,55.7,30.01,SW,222,7.0,13.0,100,0.00,,,0.00,Wunderground v.1.15,2013-01-15 13:48:00,
2013-01-15 08:53:00,55.7,55.7,30.01,SW,223,8.0,8.0,100,0.00,,,0.00,Wunderground v.1.15,2013-01-15 13:53:00,
2013-01-15 08:58:00,55.7,55.7,30.01,WSW,240,8.0,12.0,100,0.00,,,0.00,Wunderground v.1.15,2013-01-15 13:58:00,
2013-01-15 09:03:00,55.7,55.7,30.02,SW,215,6.0,7.0,100,0.00,,,0.00,Wunderground v.1.15,2013-01-15 14:03:00,
2013-01-15 09:08:00,55.7,55.7,30.02,SW,217,3.0,7.0,100,0.00,,,0.00,Wunderground v.1.15,2013-01-15 14:08:00,
2013-01-15 09:14:00,55.7,55.7,30.02,SW,219,6.0,7.0,100,0.00,,,0.00,Wunderground v.1.15,2013-01-15 14:14:00,
2013-01-15 09:19:00,55.7,55.7,30.02,WSW,244,5.0,7.0,100,0.00,,,0.00,Wunderground v.1.15,2013-01-15 14:19:00,
2013-01-15 09:24:00,55.7,55.7,30.02,SW,236,3.0,4.0,100,0.00,,,0.00,Wunderground v.1.15,2013-01-15 14:24:00,
2013-01-15 09:29:00,55.7,55.7,30.02,SW,224,4.0,7.0,100,0.00,,,0.00,Wunderground v.1.15,2013-01-15 14:29:00,
2013-01-15 09:34:00,55.7,55.7,30.03,SSW,208,1.0,4.0,100,0.00,,,0.00,Wunderground v.1.15,2013-01-15 14:34:00,
2013-01-15 09:39:00,55.7,55.7,30.03,SW,220,4.0,6.0,100,0.00,,,0.00,Wunderground v.1.15,2013-01-15 14:39:00,
2013-01-15 09:44:00,55.7,55.7,30.03,SW,223,7.0,7.0,100,0.00,,,0.00,Wunderground v.1.15,2013-01-15 14:44:00,
2013-01-15 09:49:00,55.7,55.7,30.03,SW,229,0.0,7.0,100,0.00,,,0.00,Wunderground v.1.15,2013-01-15 14:49:00,
2013-01-15 09:54:00,55.7,55.7,30.03,SSW,203,3.0,3.0,100,0.00,,,0.00,Wunderground v.1.15,2013-01-15 14:54:00,
2013-01-15 09:59:00,55.7,55.7,30.03,SW,227,2.0,6.0,100,0.00,,,0.00,Wunderground v.1.15,2013-01-15 14:59:00,
2013-01-15 10:04:00,55.7,55.7,30.03,SW,229,2.0,4.0,100,0.00,,,0.00,Wunderground v.1.15,2013-01-15 15:04:00,
2013-01-15 10:09:00,55.7,55.7,30.03,SSW,213,3.0,5.0,100,0.00,,,0.00,Wunderground v.1.15,2013-01-15 15:09:00,
2013-01-15 10:16:00,55.7,55.7,30.03,SW,216,4.0,4.0,100,0.00,,,0.00,Wunderground v.1.15,2013-01-15 15:16:00,
2013-01-15 10:21:00,55.7,55.7,30.03,SSW,210,1.0,6.0,100,0.00,,,0.00,Wunderground v.1.15,2013-01-15 15:21:00,
2013-01-15 10:26:00,55.7,55.7,30.03,SSW,199,3.0,3.0,100,0.00,,,0.00,Wunderground v.1.15,2013-01-15 15:26:00,
2013-01-15 10:32:00,55.6,55.6,30.03,South,191,1.0,5.0,100,0.00,,,0.00,Wunderground v.1.15,2013-01-15 15:32:00,
2013-01-15 10:37:00,55.6,55.6,30.03,SW,220,1.0,6.0,100,0.00,,,0.00,Wunderground v.1.15,2013-01-15 15:37:00,
2013-01-15 10:42:00,55.6,55.6,30.03,SSW,205,3.0,8.0,100,0.00,,,0.00,Wunderground v.1.15,2013-01-15 15:42:00,
2013-01-15 10:47:00,55.7,55.7,30.03,SW,234,7.0,7.0,100,0.00,,,0.00,Wunderground v.1.15,2013-01-15 15:47:00,
2013-01-15 10:52:00,55.7,55.7,30.03,SSW,203,7.0,7.0,100,0.00,,,0.00,Wunderground v.1.15,2013-01-15 15:52:00,
2013-01-15 10:58:00,55.6,55.6,30.03,SSW,199,6.0,7.0,100,0.00,,,0.00,Wunderground v.1.15,2013-01-15 15:58:00,
2013-01-15 11:03:00,55.6,55.6,30.02,SSW,209,5.0,8.0,100,0.00,,,0.00,Wunderground v.1.15,2013-01-15 16:03:00,
2013-01-15 11:08:00,55.4,55.4,30.02,SW,215,2.0,10.0,100,0.00,,,0.00,Wunderground v.1.15,2013-01-15 16:08:00,
2013-01-15 11:13:00,55.4,55.4,30.02,SW,220,2.0,10.0,100,0.00,,,0.00,Wunderground v.1.15,2013-01-15 16:13:00,
2013-01-15 11:18:00,55.3,55.3,30.04,SSW,205,4.0,10.0,100,0.00,,,0.00,Wunderground v.1.15,2013-01-15 16:18:00,
2013-01-15 11:23:00,55.3,55.3,30.04,SSW,199,8.0,10.0,100,0.00,,,0.00,Wunderground v.1.15,2013-01-15 16:23:00,
2013-01-15 11:29:00,55.3,55.3,30.04,South,186,2.0,7.0,100,0.00,,,0.00,Wunderground v.1.15,2013-01-15 16:29:00,
2013-01-15 11:34:00,55.3,55.3,30.02,SW,222,5.0,7.0,100,0.00,,,0.00,Wunderground v.1.15,2013-01-15 16:34:00,
2013-01-15 11:39:00,55.3,55.3,30.02,SW,223,5.0,10.0,100,0.00,,,0.00,Wunderground v.1.15,2013-01-15 16:39:00,
2013-01-15 11:44:00,55.3,55.3,30.02,SW,215,5.0,10.0,100,0.00,,,0.00,Wunderground v.1.15,2013-01-15 16:44:00,
2013-01-15 11:49:00,55.4,55.4,30.01,SSW,212,7.0,10.0,100,0.00,,,0.00,Wunderground v.1.15,2013-01-15 16:49:00,
2013-01-15 11:56:00,55.3,55.3,30.01,SSW,200,7.0,7.0,100,0.00,,,0.00,Wunderground v.1.15,2013-01-15 16:56:00,
2013-01-15 12:01:00,55.1,55.1,30.01,SSW,210,8.0,9.0,100,0.00,,,0.00,Wunderground v.1.15,2013-01-15 17:01:00,
2013-01-15 12:06:00,55.1,55.1,30.00,WSW,237,10.0,10.0,100,0.00,,,0.00,Wunderground v.1.15,2013-01-15 17:06:00,
2013-01-15 12:11:00,55.0,55.0,30.00,SW,215,4.0,10.0,100,0.00,,,0.00,Wunderground v.1.15,2013-01-15 17:11:00,
2013-01-15 12:17:00,55.0,55.0,30.00,SSW,212,5.0,8.0,100,0.00,,,0.00,Wunderground v.1.15,2013-01-15 17:17:00,
2013-01-15 12:22:00,55.0,55.0,30.00,SSW,192,2.0,10.0,100,0.00,,,0.00,Wunderground v.1.15,2013-01-15 17:22:00,
2013-01-15 12:27:00,55.0,55.0,30.00,SSW,212,8.0,8.0,100,0.00,,,0.00,Wunderground v.1.15,2013-01-15 17:27:00,
2013-01-15 12:32:00,55.0,55.0,29.99,SSW,205,4.0,10.0,100,0.00,,,0.00,Wunderground v.1.15,2013-01-15 17:32:00,
2013-01-15 12:37:00,55.0,55.0,29.99,SSW,198,1.0,7.0,100,0.00,,,0.00,Wunderground v.1.15,2013-01-15 17:37:00,
2013-01-15 12:42:00,55.1,55.1,29.99,South,182,3.0,8.0,100,0.00,,,0.00,Wunderground v.1.15,2013-01-15 17:42:00,
2013-01-15 12:48:00,55.1,55.1,29.98,South,175,2.0,10.0,100,0.00,,,0.00,Wunderground v.1.15,2013-01-15 17:48:00,
2013-01-15 12:53:00,55.1,55.1,29.98,SSW,195,3.0,10.0,100,0.00,,,0.00,Wunderground v.1.15,2013-01-15 17:53:00,
2013-01-15 12:58:00,55.1,55.1,29.98,SSW,203,8.0,8.0,100,0.00,,,0.00,Wunderground v.1.15,2013-01-15 17:58:00,
2013-01-15 13:03:00,55.0,55.0,29.97,SSW,212,11.0,12.0,100,0.00,,,0.00,Wunderground v.1.15,2013-01-15 18:03:00,
2013-01-15 13:08:00,54.8,54.8,29.97,SSW,209,3.0,13.0,100,0.00,,,0.00,Wunderground v.1.15,2013-01-15 18:08:00,
2013-01-15 13:13:00,54.8,54.8,29.97,SW,227,8.0,13.0,100,0.00,,,0.00,Wunderground v.1.15,2013-01-15 18:13:00,
2013-01-15 13:18:00,54.8,54.8,29.96,SSW,209,3.0,12.0,100,0.00,,,0.00,Wunderground v.1.15,2013-01-15 18:18:00,
2013-01-15 13:23:00,55.0,55.0,29.96,SSW,200,7.0,12.0,100,0.00,,,0.00,Wunderground v.1.15,2013-01-15 18:23:00,
2013-01-15 13:29:00,54.8,54.8,29.96,SW,236,9.0,11.0,100,0.00,,,0.00,Wunderground v.1.15,2013-01-15 18:29:00,
2013-01-15 13:36:00,54.8,54.8,29.96,SW,232,10.0,10.0,100,0.00,,,0.00,Wunderground v.1.15,2013-01-15 18:36:00,
2013-01-15 13:41:00,54.8,54.8,29.96,SSW,203,8.0,11.0,100,0.00,,,0.00,Wunderground v.1.15,2013-01-15 18:41:00,
2013-01-15 13:46:00,54.8,54.8,29.96,WSW,241,7.0,8.0,100,0.00,,,0.00,Wunderground v.1.15,2013-01-15 18:46:00,
2013-01-15 13:51:00,54.8,54.8,29.95,SW,233,6.0,10.0,100,0.00,,,0.00,Wunderground v.1.15,2013-01-15 18:51:00,
2013-01-15 13:56:00,54.8,54.8,29.95,SW,227,3.0,5.0,100,0.00,,,0.00,Wunderground v.1.15,2013-01-15 18:56:00,
2013-01-15 14:01:00,54.8,54.8,29.94,SW,222,5.0,8.0,100,0.00,,,0.00,Wunderground v.1.15,2013-01-15 19:01:00,
2013-01-15 14:07:00,55.0,55.0,29.94,SW,222,5.0,9.0,100,0.00,,,0.00,Wunderground v.1.15,2013-01-15 19:07:00,
2013-01-15 14:12:00,55.0,55.0,29.94,WSW,251,6.0,9.0,100,0.00,,,0.00,Wunderground v.1.15,2013-01-15 19:12:00,
2013-01-15 14:17:00,55.0,55.0,29.93,SW,220,6.0,7.0,100,0.00,,,0.00,Wunderground v.1.15,2013-01-15 19:17:00,
2013-01-15 14:22:00,55.1,55.1,29.93,South,178,6.0,10.0,100,0.00,,,0.00,Wunderground v.1.15,2013-01-15 19:22:00,
2013-01-15 14:27:00,55.1,55.1,29.93,SW,223,4.0,6.0,100,0.00,,,0.00,Wunderground v.1.15,2013-01-15 19:27:00,
2013-01-15 14:32:00,55.1,55.1,29.93,SW,224,11.0,11.0,100,0.00,,,0.00,Wunderground v.1.15,2013-01-15 19:32:00,
2013-01-15 14:37:00,55.1,55.1,29.93,SW,226,7.0,10.0,100,0.00,,,0.00,Wunderground v.1.15,2013-01-15 19:37:00,
2013-01-15 14:42:00,55.1,55.1,29.93,WSW,250,4.0,11.0,100,0.00,,,0.00,Wunderground v.1.15,2013-01-15 19:42:00,
2013-01-15 14:47:00,55.1,55.1,29.94,SSW,205,5.0,11.0,100,0.00,,,0.00,Wunderground v.1.15,2013-01-15 19:47:00,
2013-01-15 14:53:00,55.1,55.1,29.94,WSW,247,8.0,14.0,100,0.00,,,0.00,Wunderground v.1.15,2013-01-15 19:53:00,
2013-01-15 14:58:00,55.1,55.1,29.94,WSW,246,5.0,10.0,100,0.00,,,0.00,Wunderground v.1.15,2013-01-15 19:58:00,
2013-01-15 15:03:00,55.1,55.1,29.94,WSW,250,5.0,10.0,100,0.00,,,0.00,Wunderground v.1.15,2013-01-15 20:03:00,
2013-01-15 15:08:00,55.1,55.1,29.94,WSW,239,8.0,11.0,100,0.00,,,0.00,Wunderground v.1.15,2013-01-15 20:08:00,
2013-01-15 15:13:00,55.1,55.1,29.94,SSW,193,10.0,12.0,100,0.00,,,0.00,Wunderground v.1.15,2013-01-15 20:13:00,
2013-01-15 15:18:00,55.0,55.0,29.94,SW,223,10.0,13.0,100,0.00,,,0.00,Wunderground v.1.15,2013-01-15 20:18:00,
2013-01-15 15:23:00,54.8,54.8,29.94,SW,222,10.0,13.0,100,0.00,,,0.00,Wunderground v.1.15,2013-01-15 20:23:00,
2013-01-15 15:29:00,54.8,54.8,29.94,SW,230,9.0,16.0,100,0.00,,,0.00,Wunderground v.1.15,2013-01-15 20:29:00,
2013-01-15 15:36:00,54.7,54.7,29.94,West,274,11.0,11.0,100,0.00,,,0.00,Wunderground v.1.15,2013-01-15 20:36:00,
2013-01-15 15:41:00,54.5,54.5,29.94,SW,219,11.0,14.0,100,0.00,,,0.00,Wunderground v.1.15,2013-01-15 20:41:00,
2013-01-15 15:46:00,54.5,54.5,29.94,WSW,256,12.0,12.0,100,0.00,,,0.00,Wunderground v.1.15,2013-01-15 20:46:00,
2013-01-15 15:51:00,54.5,54.5,29.94,South,188,10.0,13.0,100,0.00,,,0.00,Wunderground v.1.15,2013-01-15 20:51:00,
2013-01-15 15:56:00,54.5,54.5,29.94,SW,227,12.0,12.0,100,0.00,,,0.00,Wunderground v.1.15,2013-01-15 20:56:00,
2013-01-15 16:01:00,54.4,54.4,29.94,SW,217,6.0,12.0,100,0.00,,,0.00,Wunderground v.1.15,2013-01-15 21:01:00,
2013-01-15 16:06:00,54.4,54.4,29.95,WSW,254,7.0,7.0,100,0.00,,,0.00,Wunderground v.1.15,2013-01-15 21:06:00,
2013-01-15 16:11:00,54.4,54.4,29.95,SW,233,10.0,10.0,100,0.00,,,0.00,Wunderground v.1.15,2013-01-15 21:11:00,
2013-01-15 16:16:00,54.4,54.4,29.95,SW,227,6.0,9.0,100,0.00,,,0.00,Wunderground v.1.15,2013-01-15 21:16:00,
2013-01-15 16:21:00,54.2,54.2,29.95,WSW,246,6.0,13.0,100,0.00,,,0.00,Wunderground v.1.15,2013-01-15 21:21:00,
2013-01-15 16:26:00,54.2,54.2,29.95,WSW,237,8.0,8.0,100,0.00,,,0.00,Wunderground v.1.15,2013-01-15 21:26:00,
2013-01-15 16:31:00,54.1,54.1,29.95,SW,232,6.0,13.0,100,0.00,,,0.00,Wunderground v.1.15,2013-01-15 21:31:00,
2013-01-15 16:36:00,54.1,54.1,29.94,WSW,250,3.0,9.0,100,0.00,,,0.00,Wunderground v.1.15,2013-01-15 21:36:00,
2013-01-15 16:42:00,54.1,54.1,29.94,WSW,239,7.0,15.0,100,0.00,,,0.00,Wunderground v.1.15,2013-01-15 21:42:00,
2013-01-15 16:47:00,54.2,54.2,29.94,SW,230,7.0,10.0,100,0.00,,,0.00,Wunderground v.1.15,2013-01-15 21:47:00,
2013-01-15 16:52:00,54.2,54.2,29.94,WSW,257,5.0,11.0,100,0.00,,,0.00,Wunderground v.1.15,2013-01-15 21:52:00,
2013-01-15 16:57:00,54.4,54.4,29.94,West,270,6.0,6.0,100,0.00,,,0.00,Wunderground v.1.15,2013-01-15 21:57:00,
2013-01-15 17:02:00,54.5,54.5,29.95,WSW,247,4.0,8.0,100,0.00,,,0.00,Wunderground v.1.15,2013-01-15 22:02:00,
2013-01-15 17:07:00,54.5,54.5,29.95,WSW,246,7.0,7.0,100,0.00,,,0.00,Wunderground v.1.15,2013-01-15 22:07:00,
2013-01-15 17:12:00,54.7,54.7,29.95,WSW,258,5.0,8.0,100,0.00,,,0.00,Wunderground v.1.15,2013-01-15 22:12:00,
2013-01-15 17:18:00,54.7,54.7,29.95,SW,230,9.0,11.0,100,0.00,,,0.00,Wunderground v.1.15,2013-01-15 22:18:00,
2013-01-15 17:23:00,54.7,54.7,29.95,SW,224,7.0,11.0,100,0.00,,,0.00,Wunderground v.1.15,2013-01-15 22:23:00,
2013-01-15 17:28:00,54.7,54.7,29.95,SW,220,7.0,12.0,100,0.00,,,0.00,Wunderground v.1.15,2013-01-15 22:28:00,
2013-01-15 17:34:00,54.5,54.5,29.96,WSW,243,9.0,13.0,100,0.00,,,0.00,Wunderground v.1.15,2013-01-15 22:34:00,
2013-01-15 17:39:00,54.5,54.5,29.96,WSW,248,6.0,10.0,100,0.00,,,0.00,Wunderground v.1.15,2013-01-15 22:39:00,
2013-01-15 17:44:00,54.5,54.5,29.96,SSW,205,9.0,10.0,100,0.00,,,0.00,Wunderground v.1.15,2013-01-15 22:44:00,
2013-01-15 17:49:00,54.5,54.5,29.96,WSW,243,11.0,13.0,100,0.00,,,0.00,Wunderground v.1.15,2013-01-15 22:49:00,
2013-01-15 17:56:00,54.4,54.4,29.96,SW,220,7.0,8.0,100,0.00,,,0.00,Wunderground v.1.15,2013-01-15 22:56:00,
2013-01-15 18:01:00,54.4,54.4,29.96,SW,236,7.0,13.0,100,0.00,,,0.00,Wunderground v.1.15,2013-01-15 23:01:00,
2013-01-15 18:06:00,54.4,54.4,29.96,WSW,246,4.0,10.0,100,0.00,,,0.00,Wunderground v.1.15,2013-01-15 23:06:00,
2013-01-15 18:11:00,54.4,54.4,29.96,WSW,247,1.0,10.0,100,0.00,,,0.00,Wunderground v.1.15,2013-01-15 23:11:00,
2013-01-15 18:17:00,54.2,54.2,29.96,SW,222,6.0,10.0,100,0.00,,,0.00,Wunderground v.1.15,2013-01-15 23:17:00,
2013-01-15 18:22:00,54.2,54.2,29.96,SW,217,8.0,10.0,100,0.00,,,0.00,Wunderground v.1.15,2013-01-15 23:22:00,
2013-01-15 18:27:00,54.2,54.2,29.96,WSW,244,7.0,7.0,100,0.00,,,0.00,Wunderground v.1.15,2013-01-15 23:27:00,
2013-01-15 18:32:00,54.2,54.2,29.96,WSW,253,8.0,12.0,100,0.00,,,0.00,Wunderground v.1.15,2013-01-15 23:32:00,
2013-01-15 18:37:00,54.2,54.2,29.96,WSW,250,6.0,10.0,100,0.00,,,0.00,Wunderground v.1.15,2013-01-15 23:37:00,
2013-01-15 18:42:00,54.1,54.1,29.96,SW,224,1.0,10.0,100,0.00,,,0.00,Wunderground v.1.15,2013-01-15 23:42:00,
2013-01-15 18:48:00,54.1,54.1,29.96,SSW,209,3.0,9.0,100,0.00,,,0.00,Wunderground v.1.15,2013-01-15 23:48:00,
2013-01-15 18:53:00,54.1,54.1,29.96,SSW,209,6.0,12.0,100,0.00,,,0.00,Wunderground v.1.15,2013-01-15 23:53:00,
2013-01-15 18:58:00,54.1,54.1,29.96,SSW,196,11.0,11.0,100,0.00,,,0.00,Wunderground v.1.15,2013-01-15 23:58:00,
2013-01-15 19:03:00,54.1,54.1,29.95,SW,220,8.0,15.0,100,0.00,,,0.00,Wunderground v.1.15,2013-01-16 00:03:00,
2013-01-15 19:08:00,53.9,53.9,29.95,SSW,210,5.0,14.0,100,0.00,,,0.00,Wunderground v.1.15,2013-01-16 00:08:00,
2013-01-15 19:13:00,53.9,53.9,29.95,SW,226,5.0,14.0,100,0.00,,,0.00,Wunderground v.1.15,2013-01-16 00:13:00,
2013-01-15 19:18:00,53.9,53.9,29.95,WSW,237,4.0,10.0,100,0.00,,,0.00,Wunderground v.1.15,2013-01-16 00:18:00,
2013-01-15 19:23:00,53.9,53.9,29.95,WSW,247,6.0,11.0,100,0.00,,,0.00,Wunderground v.1.15,2013-01-16 00:23:00,
2013-01-15 19:29:00,53.9,53.9,29.95,WSW,247,10.0,12.0,100,0.00,,,0.00,Wunderground v.1.15,2013-01-16 00:29:00,
2013-01-15 19:36:00,53.8,53.8,29.95,SW,229,6.0,7.0,100,0.00,,,0.00,Wunderground v.1.15,2013-01-16 00:36:00,
2013-01-15 19:41:00,53.8,53.8,29.95,SW,217,6.0,9.0,100,0.00,,,0.00,Wunderground v.1.15,2013-01-16 00:41:00,
2013-01-15 19:46:00,53.9,53.9,29.94,West,261,8.0,8.0,100,0.00,,,0.00,Wunderground v.1.15,2013-01-16 00:46:00,
2013-01-15 19:51:00,53.9,53.9,29.94,WSW,240,7.0,11.0,100,0.00,,,0.00,Wunderground v.1.15,2013-01-16 00:51:00,
2013-01-15 19:56:00,53.9,53.9,29.94,WSW,243,7.0,8.0,100,0.00,,,0.00,Wunderground v.1.15,2013-01-16 00:56:00,
2013-01-15 20:01:00,53.9,53.9,29.94,SSW,206,6.0,10.0,100,0.00,,,0.00,Wunderground v.1.15,2013-01-16 01:01:00,
2013-01-15 20:06:00,54.1,54.1,29.94,SW,236,10.0,12.0,100,0.00,,,0.00,Wunderground v.1.15,2013-01-16 01:06:00,
2013-01-15 20:12:00,54.1,54.1,29.94,WSW,251,6.0,13.0,100,0.00,,,0.00,Wunderground v.1.15,2013-01-16 01:12:00,
2013-01-15 20:17:00,54.1,54.1,29.94,SW,217,7.0,12.0,100,0.00,,,0.00,Wunderground v.1.15,2013-01-16 01:17:00,
2013-01-15 20:22:00,54.1,54.1,29.94,SW,224,8.0,13.0,100,0.00,,,0.00,Wunderground v.1.15,2013-01-16 01:22:00,
2013-01-15 20:27:00,54.1,54.1,29.94,WSW,239,7.0,9.0,100,0.00,,,0.00,Wunderground v.1.15,2013-01-16 01:27:00,
2013-01-15 20:32:00,53.9,53.9,29.94,SW,234,5.0,12.0,100,0.00,,,0.00,Wunderground v.1.15,2013-01-16 01:32:00,
2013-01-15 20:38:00,53.9,53.9,29.94,SSW,206,10.0,14.0,100,0.00,,,0.00,Wunderground v.1.15,2013-01-16 01:38:00,
2013-01-15 20:43:00,54.1,54.1,29.94,WSW,258,6.0,14.0,100,0.00,,,0.00,Wunderground v.1.15,2013-01-16 01:43:00,
2013-01-15 20:49:00,54.1,54.1,29.94,SW,216,10.0,11.0,100,0.00,,,0.00,Wunderground v.1.15,2013-01-16 01:49:00,
2013-01-15 20:54:00,54.1,54.1,29.94,SW,222,5.0,12.0,100,0.00,,,0.00,Wunderground v.1.15,2013-01-16 01:54:00,
2013-01-15 20:59:00,54.1,54.1,29.94,SW,215,7.0,12.0,100,0.00,,,0.00,Wunderground v.1.15,2013-01-16 01:59:00,
2013-01-15 21:06:00,54.1,54.1,29.93,SSW,210,6.0,6.0,100,0.00,,,0.00,Wunderground v.1.15,2013-01-16 02:06:00,
2013-01-15 21:11:00,53.9,53.9,29.93,SW,220,7.0,7.0,100,0.00,,,0.00,Wunderground v.1.15,2013-01-16 02:11:00,
2013-01-15 21:16:00,53.9,53.9,29.93,SW,219,8.0,8.0,100,0.00,,,0.00,Wunderground v.1.15,2013-01-16 02:16:00,
2013-01-15 21:21:00,54.1,54.1,29.93,WSW,237,6.0,9.0,100,0.00,,,0.00,Wunderground v.1.15,2013-01-16 02:21:00,
2013-01-15 21:26:00,54.2,54.2,29.93,SW,226,6.0,7.0,100,0.00,,,0.00,Wunderground v.1.15,2013-01-16 02:26:00,
2013-01-15 21:32:00,54.2,54.2,29.93,WSW,246,10.0,10.0,100,0.00,,,0.00,Wunderground v.1.15,2013-01-16 02:32:00,
2013-01-15 21:37:00,54.2,54.2,29.93,SSW,203,10.0,10.0,100,0.00,,,0.00,Wunderground v.1.15,2013-01-16 02:37:00,
2013-01-15 21:42:00,54.2,54.2,29.93,SSW,210,10.0,13.0,100,0.00,,,0.00,Wunderground v.1.15,2013-01-16 02:42:00,
2013-01-15 21:47:00,54.1,54.1,29.93,SSW,193,6.0,9.0,100,0.00,,,0.00,Wunderground v.1.15,2013-01-16 02:47:00,
2013-01-15 21:53:00,54.1,54.1,29.93,SW,223,7.0,12.0,100,0.00,,,0.00,Wunderground v.1.15,2013-01-16 02:53:00,
2013-01-15 21:58:00,54.1,54.1,29.93,SW,224,10.0,10.0,100,0.00,,,0.00,Wunderground v.1.15,2013-01-16 02:58:00,
2013-01-15 22:03:00,54.1,54.1,29.92,West,260,6.0,15.0,100,0.00,,,0.00,Wunderground v.1.15,2013-01-16 03:03:00,
2013-01-15 22:08:00,54.1,54.1,29.92,SW,229,4.0,10.0,100,0.00,,,0.00,Wunderground v.1.15,2013-01-16 03:08:00,
2013-01-15 22:13:00,54.2,54.2,29.92,SW,232,7.0,10.0,100,0.00,,,0.00,Wunderground v.1.15,2013-01-16 03:13:00,
2013-01-15 22:18:00,54.2,54.2,29.92,SW,216,10.0,13.0,100,0.00,,,0.00,Wunderground v.1.15,2013-01-16 03:18:00,
2013-01-15 22:23:00,54.2,54.2,29.92,SSW,208,8.0,13.0,100,0.00,,,0.00,Wunderground v.1.15,2013-01-16 03:23:00,
2013-01-15 22:29:00,54.1,54.1,29.92,SSW,206,4.0,10.0,100,0.00,,,0.00,Wunderground v.1.15,2013-01-16 03:29:00,
2013-01-15 22:36:00,54.1,54.1,29.92,SW,234,9.0,9.0,100,0.00,,,0.00,Wunderground v.1.15,2013-01-16 03:36:00,
2013-01-15 22:41:00,54.1,54.1,29.92,South,179,6.0,12.0,100,0.00,,,0.00,Wunderground v.1.15,2013-01-16 03:41:00,
2013-01-15 22:46:00,53.9,53.9,29.92,SSW,203,5.0,14.0,100,0.00,,,0.00,Wunderground v.1.15,2013-01-16 03:46:00,
2013-01-15 22:51:00,53.9,53.9,29.92,WSW,246,6.0,14.0,100,0.00,,,0.00,Wunderground v.1.15,2013-01-16 03:51:00,
2013-01-15 22:56:00,53.9,53.9,29.92,SSW,206,6.0,10.0,100,0.00,,,0.00,Wunderground v.1.15,2013-01-16 03:56:00,
2013-01-15 23:02:00,53.9,53.9,29.92,SSW,200,8.0,13.0,100,0.00,,,0.00,Wunderground v.1.15,2013-01-16 04:02:00,
2013-01-15 23:07:00,53.9,53.9,29.92,SSW,203,7.0,10.0,100,0.00,,,0.00,Wunderground v.1.15,2013-01-16 04:07:00,
2013-01-15 23:12:00,53.9,53.9,29.92,SW,219,11.0,11.0,100,0.00,,,0.00,Wunderground v.1.15,2013-01-16 04:12:00,
2013-01-15 23:17:00,53.9,53.9,29.92,SSW,200,7.0,12.0,100,0.00,,,0.00,Wunderground v.1.15,2013-01-16 04:17:00,
2013-01-15 23:22:00,53.9,53.9,29.92,SSW,192,6.0,13.0,100,0.00,,,0.00,Wunderground v.1.15,2013-01-16 04:22:00,
2013-01-15 23:27:00,53.8,53.8,29.92,SW,216,5.0,10.0,100,0.00,,,0.00,Wunderground v.1.15,2013-01-16 04:27:00,
2013-01-15 23:32:00,53.6,53.6,29.92,SSW,205,1.0,11.0,100,0.00,,,0.00,Wunderground v.1.15,2013-01-16 04:32:00,
2013-01-15 23:37:00,53.6,53.6,29.92,South,184,6.0,8.0,100,0.00,,,0.00,Wunderground v.1.15,2013-01-16 04:37:00,
2013-01-15 23:43:00,53.5,53.5,29.92,South,174,2.0,8.0,100,0.00,,,0.00,Wunderground v.1.15,2013-01-16 04:43:00,
2013-01-15 23:48:00,53.3,53.3,29.91,SW,223,8.0,9.0,100,0.00,,,0.00,Wunderground v.1.15,2013-01-16 04:48:00,
2013-01-15 23:53:00,53.5,53.5,29.91,South,189,7.0,13.0,100,0.00,,,0.00,Wunderground v.1.15,2013-01-16 04:53:00,
2013-01-15 23:58:00,53.5,53.5,29.91,SW,226,6.0,7.0,100,0.00,,,0.00,Wunderground v.1.15,2013-01-16 04:58:00,